Time;durP1;ratioP1;P1;durP2;ratioP2;P2;SDS_P1;SDS_P2;PMS_P1;PMS_P2;Temp;Humidity;BMP_temperature;BMP_pressure;BME280_temperature;BME280_humidity;BME280_pressure;Samples;Min_cycle;Max_cycle;Signal;HPM_P1;HPM_P2
2023/05/22 00:02:16;;;;;;;12.52;6.63;;;;;;;22.78;36.84;99982.50;5021370;28;20471;-67
2023/05/22 00:04:42;;;;;;;9.65;6.50;;;;;;;22.79;36.69;99978.75;5037916;28;20442;-66
2023/05/22 00:07:08;;;;;;;10.88;6.85;;;;;;;22.81;36.86;99973.94;5021321;28;20129;-67
2023/05/22 00:09:34;;;;;;;15.57;7.78;;;;;;;22.80;36.72;99968.75;5037723;28;20040;-68
2023/05/22 00:12:00;;;;;;;15.95;8.00;;;;;;;22.66;37.31;99970.81;5021792;28;20442;-67
2023/05/22 00:14:26;;;;;;;23.85;14.65;;;;;;;22.53;36.90;99973.66;5037784;28;20036;-67
2023/05/22 00:16:52;;;;;;;25.55;16.80;;;;;;;22.53;36.78;99979.06;5032221;28;20056;-67
2023/05/22 00:19:21;;;;;;;26.35;18.98;;;;;;;22.48;37.27;99980.78;5001633;28;20048;-67
2023/05/22 00:21:50;;;;;;;40.57;27.37;;;;;;;22.48;36.87;99975.38;5018097;28;20045;-67
2023/05/22 00:24:16;;;;;;;54.05;32.40;;;;;;;22.48;36.70;99980.78;5001558;28;20430;-67
2023/05/22 00:26:42;;;;;;;31.98;24.70;;;;;;;22.37;36.69;99976.94;5015669;28;20060;-67
2023/05/22 00:29:09;;;;;;;37.08;24.63;;;;;;;22.52;36.71;99976.59;5017614;28;20040;-67
2023/05/22 00:31:35;;;;;;;46.75;30.08;;;;;;;22.37;36.93;99976.94;5017795;28;20049;-68
2023/05/22 00:34:01;;;;;;;45.45;30.70;;;;;;;22.30;36.81;99970.78;5017873;28;20486;-67
2023/05/22 00:36:27;;;;;;;42.58;25.35;;;;;;;22.27;36.54;99973.09;5017663;28;20045;-67
2023/05/22 00:38:53;;;;;;;39.03;26.80;;;;;;;22.24;36.87;99970.84;5001325;28;20044;-67
2023/05/22 00:41:20;;;;;;;39.25;24.27;;;;;;;22.17;36.74;99973.63;5033984;28;20099;-67
2023/05/22 00:43:46;;;;;;;38.28;27.08;;;;;;;22.21;37.14;99966.72;5001481;28;20052;-67
2023/05/22 00:46:13;;;;;;;38.60;24.27;;;;;;;22.20;37.32;99967.78;5017876;28;20044;-67
2023/05/22 00:48:40;;;;;;;30.10;18.88;;;;;;;22.28;36.75;99963.94;5034102;28;20060;-67
2023/05/22 00:51:07;;;;;;;22.98;16.13;;;;;;;22.15;36.90;99961.38;5017647;28;20048;-67
2023/05/22 00:53:33;;;;;;;27.10;14.98;;;;;;;22.14;36.89;99968.66;5034603;28;20502;-67
2023/05/22 00:55:59;;;;;;;29.23;15.07;;;;;;;22.14;37.06;99965.94;5017327;28;20132;-67
2023/05/22 00:58:26;;;;;;;26.52;16.02;;;;;;;22.16;37.23;99963.00;5017856;28;20045;-67
2023/05/22 01:00:52;;;;;;;24.10;15.82;;;;;;;22.16;37.05;99969.25;5017450;28;20477;-67
2023/05/22 01:03:24;;;;;;;18.80;12.70;;;;;;;22.13;36.97;99958.06;5017477;28;20048;-67
2023/05/22 01:05:52;;;;;;;19.00;12.15;;;;;;;22.21;36.55;99965.88;5002165;28;20040;-67
2023/05/22 01:08:19;;;;;;;20.58;11.50;;;;;;;22.18;36.31;99958.22;5017483;28;20095;-68
2023/05/22 01:10:46;;;;;;;23.83;12.75;;;;;;;22.14;36.50;99967.84;5017331;28;20489;-68
2023/05/22 01:13:28;;;;;;;22.02;11.48;;;;;;;22.47;36.13;99963.72;5017306;28;20525;-68
2023/05/22 01:16:04;;;;;;;19.02;10.27;;;;;;;22.42;36.27;99968.97;5017894;28;20430;-68
2023/05/22 01:18:47;;;;;;;26.10;11.55;;;;;;;22.45;36.28;99968.50;5051989;28;20110;-68
2023/05/22 01:21:23;;;;;;;21.27;11.85;;;;;;;22.38;36.59;99975.91;5020638;28;20566;-68
2023/05/22 01:24:24;;;;;;;24.60;11.40;;;;;;;22.42;36.55;99978.97;5037088;28;20066;-68
2023/05/22 01:26:52;;;;;;;18.45;12.25;;;;;;;21.92;36.89;99955.78;5037135;28;20117;-68
2023/05/22 01:29:28;;;;;;;18.25;12.20;;;;;;;22.26;37.25;99963.34;5037301;28;20084;-68
2023/05/22 01:31:57;;;;;;;20.88;12.38;;;;;;;22.18;37.60;99963.63;5038491;28;20478;-68
2023/05/22 01:34:23;;;;;;;22.80;12.15;;;;;;;22.03;37.32;99955.91;5038322;28;20044;-67
2023/05/22 01:36:50;;;;;;;27.13;12.05;;;;;;;22.05;37.52;99964.59;5038620;28;20503;-67
2023/05/22 01:39:16;;;;;;;25.55;13.00;;;;;;;22.01;37.78;99966.09;5038319;28;20044;-66
2023/05/22 01:41:45;;;;;;;25.42;12.20;;;;;;;21.78;37.87;99960.50;5038967;28;20044;-67
2023/05/22 01:44:10;;;;;;;24.48;12.43;;;;;;;21.76;38.46;99959.88;5055209;28;20040;-66
2023/05/22 01:46:36;;;;;;;27.02;12.50;;;;;;;21.71;38.46;99963.22;5040234;28;20440;-67
2023/05/22 01:49:03;;;;;;;20.38;11.90;;;;;;;21.70;38.68;99955.34;5040599;28;20044;-67
2023/05/22 01:51:42;;;;;;;19.73;11.50;;;;;;;22.07;38.77;99957.09;5023552;28;20395;-67
2023/05/22 01:54:10;;;;;;;21.63;10.85;;;;;;;21.77;38.77;99966.97;5040434;28;20040;-67
2023/05/22 01:56:44;;;;;;;20.67;11.38;;;;;;;22.07;38.54;99975.19;5023964;28;20051;-67
2023/05/22 01:59:19;;;;;;;23.45;11.52;;;;;;;22.05;39.26;99967.28;5040191;28;20055;-67
2023/05/22 02:01:47;;;;;;;26.92;12.80;;;;;;;21.90;39.02;99974.94;5013562;28;20132;-67
2023/05/22 02:04:13;;;;;;;23.35;12.20;;;;;;;21.79;39.49;99969.44;4984344;28;20087;-67
2023/05/22 02:06:42;;;;;;;22.40;11.45;;;;;;;21.80;39.32;99976.50;4984915;28;20045;-67
2023/05/22 02:09:09;;;;;;;22.05;12.23;;;;;;;21.89;39.41;99984.13;4984392;28;20041;-67
2023/05/22 02:11:38;;;;;;;20.55;11.95;;;;;;;21.92;39.40;99985.53;4997369;28;20106;-67
2023/05/22 02:14:04;;;;;;;23.17;11.48;;;;;;;21.82;38.92;99979.81;5019743;28;20440;-67
2023/05/22 02:16:30;;;;;;;20.35;10.93;;;;;;;21.78;38.68;99998.34;5022883;28;20045;-67
2023/05/22 02:19:04;;;;;;;32.17;15.60;;;;;;;21.90;38.06;100011.97;5026443;28;20043;-67
2023/05/22 02:21:50;;;;;;;38.30;16.95;;;;;;;21.74;37.76;100002.53;5050734;28;20549;-67
2023/05/22 02:24:16;;;;;;;38.63;19.55;;;;;;;21.85;37.49;100009.13;5042781;28;20134;-67
2023/05/22 02:26:42;;;;;;;49.90;23.58;;;;;;;21.86;37.42;100005.34;5042925;28;20097;-67
2023/05/22 02:29:08;;;;;;;56.80;28.27;;;;;;;21.98;36.56;100007.13;5026394;28;20134;-67
2023/05/22 02:31:34;;;;;;;62.50;29.60;;;;;;;22.03;36.40;100003.75;5042178;28;20079;-67
2023/05/22 02:34:04;;;;;;;73.95;35.47;;;;;;;22.13;36.93;100009.47;5026441;28;20193;-67
2023/05/22 02:36:30;;;;;;;82.80;42.10;;;;;;;22.24;35.92;100006.84;5042472;28;20055;-67
2023/05/22 02:38:58;;;;;;;77.07;40.38;;;;;;;22.41;35.91;99999.81;5022312;28;20137;-68
2023/05/22 02:41:24;;;;;;;84.10;40.58;;;;;;;22.30;35.96;100008.66;5031731;28;20457;-68
2023/05/22 02:43:50;;;;;;;80.55;40.13;;;;;;;22.53;35.57;100008.84;5023511;28;20056;-68
2023/05/22 02:46:16;;;;;;;79.32;42.72;;;;;;;22.38;35.51;100002.13;5041072;28;20127;-69
2023/05/22 02:48:42;;;;;;;79.78;39.78;;;;;;;22.56;35.55;99997.56;5026379;28;20197;-68
2023/05/22 02:51:07;;;;;;;77.80;40.65;;;;;;;22.63;35.08;100008.34;5042517;28;20059;-71
2023/05/22 02:53:34;;;;;;;79.05;41.30;;;;;;;22.68;35.20;100012.00;5025758;28;20047;-70
2023/05/22 02:56:00;;;;;;;76.88;39.13;;;;;;;22.76;35.01;100011.69;5042114;28;20177;-69
2023/05/22 02:58:26;;;;;;;83.35;41.33;;;;;;;22.83;34.80;100012.44;5042131;28;20204;-69
2023/05/22 03:00:52;;;;;;;70.93;41.58;;;;;;;22.86;34.98;100009.25;5041984;28;20217;-70
2023/05/22 03:03:18;;;;;;;74.18;40.25;;;;;;;22.96;34.92;100006.00;5041976;28;20052;-71
2023/05/22 03:05:44;;;;;;;72.85;39.58;;;;;;;23.02;34.68;100010.50;5025500;28;20126;-68
2023/05/22 03:08:11;;;;;;;69.55;38.17;;;;;;;23.18;34.65;100015.31;5042198;28;20464;-66
2023/05/22 03:10:37;;;;;;;69.45;39.45;;;;;;;23.28;34.79;100013.72;5057948;28;20044;-66
2023/05/22 03:13:03;;;;;;;76.13;39.78;;;;;;;23.16;34.95;100014.69;5025381;28;20458;-66
2023/05/22 03:15:29;;;;;;;59.67;37.10;;;;;;;23.24;34.61;100004.41;5041791;28;20047;-65
2023/05/22 03:18:04;;;;;;;55.70;34.08;;;;;;;23.58;34.88;99996.56;5025245;28;20064;-66
2023/05/22 03:20:34;;;;;;;61.25;34.17;;;;;;;23.41;34.74;100007.28;4983112;28;20543;-66
2023/05/22 03:23:03;;;;;;;58.42;33.53;;;;;;;23.46;34.50;100004.72;4997010;28;20050;-65
2023/05/22 03:25:33;;;;;;;51.72;27.45;;;;;;;23.57;34.51;100009.31;4996818;28;20567;-65
2023/05/22 03:27:59;;;;;;;49.63;28.02;;;;;;;23.58;34.54;100010.13;5012573;28;20132;-65
2023/05/22 03:30:29;;;;;;;49.50;28.17;;;;;;;23.62;34.66;100019.47;4994429;28;20068;-66
2023/05/22 03:33:07;;;;;;;51.50;26.25;;;;;;;23.58;35.45;100019.09;4975496;28;20045;-66
2023/05/22 03:35:33;;;;;;;49.35;26.38;;;;;;;23.60;35.48;100017.00;4963863;28;20068;-65
2023/05/22 03:37:59;;;;;;;48.70;25.15;;;;;;;23.55;35.90;100016.03;4987911;28;20049;-65
2023/05/22 03:40:26;;;;;;;43.28;24.40;;;;;;;23.68;36.39;100010.41;4997331;28;20136;-65
2023/05/22 03:42:51;;;;;;;40.03;22.10;;;;;;;23.63;36.52;100013.00;4997300;28;20390;-66
2023/05/22 03:45:17;;;;;;;43.78;20.17;;;;;;;23.68;36.60;100016.63;4981231;28;20479;-66
2023/05/22 03:47:43;;;;;;;37.47;19.52;;;;;;;23.67;36.58;100015.00;4997457;28;20048;-66
2023/05/22 03:50:10;;;;;;;34.88;17.40;;;;;;;23.64;37.14;100015.47;4996562;28;20041;-66
2023/05/22 03:52:36;;;;;;;31.55;17.08;;;;;;;23.64;36.96;100015.47;4997148;28;20084;-66
2023/05/22 03:55:03;;;;;;;28.83;16.73;;;;;;;23.75;37.33;100013.81;4998520;28;20048;-66
2023/05/22 03:57:30;;;;;;;29.15;15.70;;;;;;;23.65;37.29;100011.69;5032063;28;20445;-66
2023/05/22 03:59:56;;;;;;;26.20;15.60;;;;;;;23.46;38.42;99996.56;4999220;28;20049;-66
2023/05/22 04:02:25;;;;;;;29.85;15.85;;;;;;;23.57;38.49;100012.00;4999363;28;20102;-66
2023/05/22 04:04:51;;;;;;;30.90;16.25;;;;;;;23.64;38.39;100012.75;5015847;28;20509;-66
2023/05/22 04:07:17;;;;;;;27.88;15.77;;;;;;;23.70;38.57;100010.97;5001231;28;20040;-66
2023/05/22 04:09:43;;;;;;;27.92;15.23;;;;;;;23.69;38.85;100009.34;5018218;28;20115;-66
2023/05/22 04:12:09;;;;;;;30.67;15.18;;;;;;;23.75;39.33;100006.53;5017719;28;20044;-66
2023/05/22 04:14:35;;;;;;;31.85;15.27;;;;;;;23.83;39.60;100003.47;5001299;28;20041;-66
2023/05/22 04:17:01;;;;;;;29.98;13.88;;;;;;;23.92;39.49;100002.06;5007119;28;20467;-66
2023/05/22 04:19:28;;;;;;;27.60;14.35;;;;;;;23.95;39.66;99998.03;5037577;28;20083;-67
2023/05/22 04:21:56;;;;;;;24.65;13.60;;;;;;;23.96;40.84;100005.97;5021115;28;20044;-66
2023/05/22 04:24:22;;;;;;;24.13;13.38;;;;;;;23.76;40.74;100004.63;5037317;28;20041;-66
2023/05/22 04:26:48;;;;;;;28.20;14.00;;;;;;;23.88;41.03;100005.47;5037742;28;20051;-66
2023/05/22 04:29:15;;;;;;;21.83;13.13;;;;;;;23.68;40.95;100007.69;5038126;28;20045;-67
2023/05/22 04:31:42;;;;;;;23.05;14.05;;;;;;;23.52;42.35;100005.66;5070909;28;20056;-66
2023/05/22 04:34:14;;;;;;;22.13;14.40;;;;;;;23.93;41.78;100009.13;5021103;28;20139;-66
2023/05/22 04:36:43;;;;;;;22.98;13.63;;;;;;;23.85;41.55;99995.91;5038524;28;20095;-66
2023/05/22 04:39:10;;;;;;;26.73;14.45;;;;;;;23.90;41.40;99997.91;5037454;28;20060;-66
2023/05/22 04:41:37;;;;;;;31.48;14.95;;;;;;;23.97;41.65;100009.53;5037535;28;20056;-66
2023/05/22 04:44:04;;;;;;;19.17;15.20;;;;;;;24.05;41.70;100018.13;5037243;28;20041;-66
2023/05/22 04:46:30;;;;;;;25.92;15.73;;;;;;;23.99;41.94;100024.50;5037171;28;20051;-66
2023/05/22 04:49:00;;;;;;;23.92;16.02;;;;;;;23.96;42.16;100018.72;5020680;28;20095;-66
2023/05/22 04:51:27;;;;;;;23.65;16.40;;;;;;;23.88;43.07;100022.56;5070546;28;20044;-67
2023/05/22 04:53:54;;;;;;;31.45;18.52;;;;;;;23.79;43.99;100031.28;5037100;28;20076;-66
2023/05/22 04:56:21;;;;;;;29.80;18.63;;;;;;;23.64;44.43;100025.47;5037414;28;20036;-66
2023/05/22 04:58:52;;;;;;;31.27;18.73;;;;;;;23.59;44.61;100028.09;5037574;28;20458;-66
2023/05/22 05:01:19;;;;;;;27.17;18.00;;;;;;;23.58;45.07;100020.97;5037812;28;20597;-66
2023/05/22 05:03:45;;;;;;;28.60;18.25;;;;;;;23.58;45.32;100007.44;5038896;28;20472;-66
2023/05/22 05:06:11;;;;;;;35.45;19.67;;;;;;;23.58;45.50;100010.13;5024565;28;20143;-66
2023/05/22 05:08:37;;;;;;;34.60;19.58;;;;;;;23.63;45.62;100015.69;5024439;28;20085;-66
2023/05/22 05:11:03;;;;;;;29.27;19.65;;;;;;;23.66;46.09;100017.94;5024387;28;20076;-66
2023/05/22 05:13:29;;;;;;;27.38;18.60;;;;;;;23.59;45.72;100012.63;5024417;28;20044;-66
2023/05/22 05:15:58;;;;;;;30.75;19.48;;;;;;;23.80;46.04;100017.47;5057427;28;20044;-66
2023/05/22 05:18:25;;;;;;;27.88;19.27;;;;;;;23.75;45.95;100022.81;5040092;28;20049;-66
2023/05/22 05:20:51;;;;;;;28.90;19.10;;;;;;;23.55;46.04;100025.00;5004459;28;20067;-66
2023/05/22 05:23:17;;;;;;;25.77;17.02;;;;;;;23.54;45.78;100019.81;5054167;28;20479;-66
2023/05/22 05:25:43;;;;;;;24.52;18.30;;;;;;;23.66;46.64;100015.22;5020898;28;20091;-66
2023/05/22 05:28:10;;;;;;;35.97;20.55;;;;;;;23.71;46.73;100026.22;5004507;28;20051;-66
2023/05/22 05:30:38;;;;;;;27.20;17.35;;;;;;;23.40;47.25;100040.03;5037502;28;20379;-67
2023/05/22 05:33:24;;;;;;;25.08;17.70;;;;;;;23.31;48.11;100038.72;5039439;28;20056;-66
2023/05/22 05:36:11;;;;;;;25.35;17.95;;;;;;;23.46;48.18;100034.53;5039715;28;20063;-66
2023/05/22 05:38:38;;;;;;;22.25;15.85;;;;;;;23.20;48.09;100043.00;5004572;28;20041;-65
2023/05/22 05:41:04;;;;;;;21.63;16.65;;;;;;;23.24;48.16;100039.66;5020997;28;20114;-66
2023/05/22 05:43:32;;;;;;;24.90;17.88;;;;;;;22.95;48.94;100053.97;5004641;28;20143;-66
2023/05/22 05:46:03;;;;;;;27.90;17.77;;;;;;;23.01;49.04;100030.53;5022134;28;20060;-65
2023/05/22 05:48:29;;;;;;;27.77;18.58;;;;;;;23.31;49.04;100042.22;5004215;28;20045;-65
2023/05/22 05:50:56;;;;;;;28.85;17.83;;;;;;;23.25;49.43;100044.00;5004258;28;20048;-66
2023/05/22 05:53:22;;;;;;;24.85;18.98;;;;;;;23.27;49.19;100028.34;5004217;28;20489;-66
2023/05/22 05:55:54;;;;;;;27.77;18.77;;;;;;;23.30;49.05;100043.31;4969134;28;20445;-66
2023/05/22 05:58:20;;;;;;;28.58;20.10;;;;;;;23.34;49.16;100051.81;4983872;28;20054;-66
2023/05/22 06:00:58;;;;;;;24.90;18.15;;;;;;;23.42;48.97;100051.50;4976866;28;20098;-65
2023/05/22 06:03:24;;;;;;;24.48;17.10;;;;;;;23.41;48.48;100034.38;4961112;28;20050;-65
2023/05/22 06:06:11;;;;;;;25.38;18.17;;;;;;;23.46;48.93;100049.97;4962863;28;20062;-65
2023/05/22 06:08:56;;;;;;;26.02;18.83;;;;;;;23.59;48.63;100042.44;4962931;28;20463;-65
2023/05/22 06:11:28;;;;;;;25.10;17.85;;;;;;;23.71;48.09;100058.75;4961426;28;20697;-65
2023/05/22 06:13:55;;;;;;;24.60;17.75;;;;;;;23.60;48.58;100059.56;4956766;28;20038;-65
2023/05/22 06:16:21;;;;;;;21.55;17.05;;;;;;;23.60;48.54;100054.13;4966359;28;20105;-66
2023/05/22 06:18:48;;;;;;;26.30;16.95;;;;;;;23.51;48.97;100033.84;4983027;28;20121;-66
2023/05/22 06:21:14;;;;;;;22.98;17.75;;;;;;;23.53;49.49;100034.41;4976752;28;20058;-66
2023/05/22 06:23:40;;;;;;;23.63;18.70;;;;;;;23.60;49.09;100008.03;4960417;28;20034;-66
2023/05/22 06:26:07;;;;;;;20.77;16.80;;;;;;;23.63;49.33;100035.53;4968080;28;20057;-65
2023/05/22 06:28:36;;;;;;;28.42;18.60;;;;;;;23.74;48.93;100023.03;4983397;28;20064;-66
2023/05/22 06:31:02;;;;;;;21.80;18.85;;;;;;;23.82;49.34;100030.84;5002111;28;20042;-66
2023/05/22 06:33:29;;;;;;;21.98;17.30;;;;;;;23.83;49.08;100044.16;5003622;28;20543;-66
2023/05/22 06:35:55;;;;;;;23.85;15.73;;;;;;;23.73;49.05;100040.34;5036252;28;20102;-66
2023/05/22 06:38:22;;;;;;;19.45;13.93;;;;;;;23.62;49.32;100039.28;5003662;28;20041;-66
2023/05/22 06:40:48;;;;;;;16.42;14.70;;;;;;;23.68;50.25;100035.63;5019844;28;20049;-66
2023/05/22 06:43:21;;;;;;;19.23;15.38;;;;;;;23.78;51.82;100011.47;5005174;28;20104;-66
2023/05/22 06:45:56;;;;;;;20.20;15.68;;;;;;;23.83;51.56;100032.47;5022223;28;20172;-66
2023/05/22 06:48:22;;;;;;;20.23;16.95;;;;;;;23.90;50.93;100011.47;5036333;28;20072;-66
2023/05/22 06:50:57;;;;;;;18.75;16.38;;;;;;;24.12;51.21;100015.31;5020726;28;20467;-65
2023/05/22 06:53:25;;;;;;;18.58;14.20;;;;;;;24.38;49.91;100018.34;5019586;28;20068;-66
2023/05/22 06:55:51;;;;;;;21.65;17.80;;;;;;;24.41;50.10;100019.75;5019611;28;20036;-65
2023/05/22 06:58:27;;;;;;;23.90;19.80;;;;;;;24.75;49.96;100019.75;5005533;28;20045;-66
2023/05/22 07:00:54;;;;;;;28.08;22.58;;;;;;;24.96;49.13;100026.41;5019391;28;20048;-66
2023/05/22 07:03:28;;;;;;;31.45;25.50;;;;;;;25.24;48.40;100037.28;5020498;28;20135;-66
2023/05/22 07:06:32;;;;;;;32.45;23.77;;;;;;;25.35;47.93;100033.72;5023747;28;20048;-66
2023/05/22 07:08:59;;;;;;;32.88;24.50;;;;;;;25.50;46.99;100028.56;5019678;28;20041;-66
2023/05/22 07:11:25;;;;;;;30.45;23.13;;;;;;;25.74;46.71;100023.81;5052216;28;20098;-66
2023/05/22 07:13:51;;;;;;;30.55;23.48;;;;;;;25.92;46.22;100035.28;5002871;28;20479;-66
2023/05/22 07:16:17;;;;;;;28.65;24.20;;;;;;;26.06;45.90;100039.31;5018898;28;20131;-66
2023/05/22 07:18:44;;;;;;;32.45;25.67;;;;;;;26.17;45.39;100040.31;5042359;28;20429;-66
2023/05/22 07:21:11;;;;;;;34.67;26.10;;;;;;;26.41;45.35;100047.19;5058757;28;20044;-66
2023/05/22 07:23:37;;;;;;;38.60;27.52;;;;;;;26.52;45.05;100046.28;5058015;28;20040;-66
2023/05/22 07:26:03;;;;;;;38.33;27.30;;;;;;;26.59;44.22;100046.91;5058206;28;20048;-66
2023/05/22 07:28:34;;;;;;;35.28;25.73;;;;;;;26.79;43.78;100049.09;5059209;28;20070;-66
2023/05/22 07:31:10;;;;;;;31.58;24.10;;;;;;;27.00;43.02;100049.09;5042993;28;20090;-66
2023/05/22 07:33:36;;;;;;;29.70;23.35;;;;;;;27.12;42.69;100048.97;5041879;28;20478;-66
2023/05/22 07:36:03;;;;;;;29.60;22.88;;;;;;;27.47;42.57;100041.19;5025431;28;20049;-66
2023/05/22 07:38:29;;;;;;;28.98;23.45;;;;;;;27.83;41.09;100043.97;5041468;28;20146;-66
2023/05/22 07:41:01;;;;;;;30.85;22.90;;;;;;;28.31;40.16;100042.22;5057936;28;20036;-66
2023/05/22 07:43:28;;;;;;;32.42;24.10;;;;;;;28.48;39.67;100046.44;5057518;28;20469;-65
2023/05/22 07:45:56;;;;;;;35.03;27.60;;;;;;;28.78;38.85;100046.59;5054906;28;20115;-65
2023/05/22 07:48:25;;;;;;;39.35;29.88;;;;;;;28.96;38.17;100057.06;5040418;28;20042;-66
2023/05/22 07:50:51;;;;;;;54.65;34.63;;;;;;;28.99;37.57;100062.00;5022470;28;20040;-66
2023/05/22 07:53:17;;;;;;;53.67;34.47;;;;;;;29.03;37.46;100062.31;5056761;28;20109;-65
2023/05/22 07:55:44;;;;;;;50.15;31.55;;;;;;;29.14;37.19;100064.81;5040208;28;20078;-66
2023/05/22 07:58:11;;;;;;;43.38;29.23;;;;;;;29.26;37.08;100062.66;5039407;28;20079;-66
2023/05/22 08:00:43;;;;;;;39.17;28.13;;;;;;;29.27;36.80;100061.59;5055864;28;20490;-66
2023/05/22 08:03:08;;;;;;;35.65;26.80;;;;;;;29.35;36.79;100063.78;5038918;28;20055;-66
2023/05/22 08:05:35;;;;;;;32.50;25.02;;;;;;;29.43;37.01;100051.50;5040389;28;20047;-65
2023/05/22 08:08:01;;;;;;;35.08;23.42;;;;;;;29.44;36.72;100048.50;5053959;28;20046;-66
2023/05/22 08:10:28;;;;;;;30.30;25.17;;;;;;;29.55;36.44;100050.13;5056909;28;20240;-66
2023/05/22 08:12:53;;;;;;;29.13;23.35;;;;;;;29.65;36.29;100054.00;5022865;28;20043;-66
2023/05/22 08:15:19;;;;;;;28.45;23.73;;;;;;;29.64;36.46;100060.59;5039779;28;20036;-66
2023/05/22 08:17:46;;;;;;;26.73;22.85;;;;;;;29.68;36.35;100054.28;5024630;28;20045;-66
2023/05/22 08:20:13;;;;;;;26.15;22.02;;;;;;;29.82;36.69;100060.88;5016614;28;20132;-66
2023/05/22 08:22:40;;;;;;;23.67;21.05;;;;;;;29.74;36.31;100066.09;5049882;28;20033;-66
2023/05/22 08:25:07;;;;;;;23.60;19.98;;;;;;;29.90;36.50;100057.59;5017806;28;20044;-66
2023/05/22 08:27:32;;;;;;;21.00;18.20;;;;;;;30.14;35.45;100052.41;5001430;28;20442;-65
2023/05/22 08:29:58;;;;;;;18.58;16.67;;;;;;;30.53;35.12;100050.69;5050678;28;20037;-66
2023/05/22 08:32:25;;;;;;;26.20;16.83;;;;;;;30.70;34.53;100046.53;5051054;28;20040;-66
2023/05/22 08:34:51;;;;;;;18.08;15.52;;;;;;;30.99;34.31;100041.25;5017517;28;20044;-66
2023/05/22 08:37:17;;;;;;;25.38;14.85;;;;;;;31.12;33.52;100046.13;5017796;28;20463;-66
2023/05/22 08:39:43;;;;;;;15.55;13.95;;;;;;;31.42;33.06;100047.88;5004732;28;20041;-68
2023/05/22 08:42:09;;;;;;;14.05;12.18;;;;;;;31.76;32.67;100037.75;5005470;28;20487;-66
2023/05/22 08:44:36;;;;;;;12.30;11.10;;;;;;;32.25;31.67;100028.28;5005997;28;20041;-66
2023/05/22 08:47:08;;;;;;;14.57;9.57;;;;;;;33.08;30.88;100027.91;5005210;28;20056;-66
2023/05/22 08:49:35;;;;;;;10.98;9.35;;;;;;;33.74;29.64;100031.34;5021539;28;20068;-66
2023/05/22 08:52:13;;;;;;;9.93;8.32;;;;;;;35.23;27.59;100035.16;5020980;28;20044;-66
2023/05/22 08:54:44;;;;;;;8.52;7.70;;;;;;;36.71;25.44;100032.00;5035481;28;20045;-67
2023/05/22 08:57:10;;;;;;;10.77;6.78;;;;;;;38.17;23.35;100040.19;5017602;28;20503;-67
2023/05/22 08:59:39;;;;;;;7.40;6.70;;;;;;;39.69;21.52;100033.38;5002205;28;20033;-66
2023/05/22 09:02:06;;;;;;;8.27;6.13;;;;;;;40.14;20.74;100023.09;5036299;28;20033;-67
2023/05/22 09:04:32;;;;;;;7.47;5.68;;;;;;;40.42;20.25;100029.69;5020028;28;20041;-67
2023/05/22 09:07:04;;;;;;;7.65;5.70;;;;;;;40.72;20.01;100022.75;5020366;28;20056;-67
2023/05/22 09:09:40;;;;;;;5.90;4.90;;;;;;;41.27;18.98;100025.75;5018033;28;20094;-67
2023/05/22 09:12:08;;;;;;;6.68;4.43;;;;;;;41.15;18.82;100023.00;5036461;28;20049;-67
2023/05/22 09:14:39;;;;;;;4.45;4.00;;;;;;;41.09;18.63;100029.19;5020661;28;20512;-67
2023/05/22 09:17:07;;;;;;;5.10;4.30;;;;;;;40.50;18.99;100023.22;5020814;28;20057;-67
2023/05/22 09:19:33;;;;;;;7.43;4.45;;;;;;;40.07;19.33;100018.09;5004111;28;20051;-67
2023/05/22 09:22:03;;;;;;;6.43;4.80;;;;;;;40.05;19.59;100027.97;5020757;28;20139;-67
2023/05/22 09:24:30;;;;;;;7.60;4.88;;;;;;;39.57;20.05;100025.75;5020448;28;20043;-67
2023/05/22 09:26:56;;;;;;;6.97;6.20;;;;;;;39.06;20.35;100017.78;5001410;28;20037;-67
2023/05/22 09:29:22;;;;;;;8.40;6.40;;;;;;;38.46;21.32;100020.81;4997771;28;20062;-67
2023/05/22 09:31:48;;;;;;;9.02;6.70;;;;;;;37.90;21.73;100012.81;5033774;28;20041;-67
2023/05/22 09:34:16;;;;;;;8.25;7.10;;;;;;;37.58;22.01;100018.81;5020266;28;20119;-67
2023/05/22 09:36:43;;;;;;;8.13;6.80;;;;;;;37.31;22.49;100016.38;5004428;28;20494;-67
2023/05/22 09:39:10;;;;;;;10.43;7.47;;;;;;;37.07;22.78;100010.47;5020902;28;20037;-66
2023/05/22 09:41:38;;;;;;;9.25;7.80;;;;;;;36.88;23.18;100012.69;5004450;28;20051;-66
2023/05/22 09:44:12;;;;;;;11.50;7.95;;;;;;;36.55;23.76;99998.41;5020602;28;20064;-67
2023/05/22 09:46:44;;;;;;;11.10;7.47;;;;;;;36.11;23.13;100014.25;5037482;28;20105;-68
2023/05/22 09:49:11;;;;;;;11.85;7.30;;;;;;;35.41;23.76;100005.78;4983532;28;20064;-67
2023/05/22 09:51:40;;;;;;;13.18;8.18;;;;;;;35.06;24.62;100007.38;4967591;28;20087;-67
2023/05/22 09:54:08;;;;;;;10.23;8.15;;;;;;;34.44;25.46;100004.53;4967634;28;20082;-67
2023/05/22 09:56:39;;;;;;;15.43;7.88;;;;;;;34.18;26.21;100004.16;5000028;28;20041;-67
2023/05/22 09:59:08;;;;;;;15.68;8.95;;;;;;;33.81;26.75;100001.50;4983445;28;20049;-67
2023/05/22 10:01:35;;;;;;;12.95;8.15;;;;;;;33.52;27.13;100000.88;4967444;28;20102;-67
2023/05/22 10:04:01;;;;;;;9.63;8.10;;;;;;;33.39;27.43;99999.69;4983535;28;20507;-67
2023/05/22 10:06:30;;;;;;;12.93;7.22;;;;;;;33.66;26.88;99997.03;4999956;28;20041;-67
2023/05/22 10:09:03;;;;;;;14.77;6.88;;;;;;;33.76;26.85;100001.56;4999586;28;20142;-67
2023/05/22 10:11:29;;;;;;;9.95;6.90;;;;;;;33.60;27.29;99998.25;4967762;28;20117;-66
2023/05/22 10:13:57;;;;;;;9.82;6.60;;;;;;;33.90;26.39;99994.19;5015639;28;20096;-67
2023/05/22 10:16:24;;;;;;;11.40;7.07;;;;;;;34.07;25.88;99986.97;4983898;28;20046;-67
2023/05/22 10:18:51;;;;;;;12.88;6.32;;;;;;;34.40;25.77;99990.50;4986884;28;20045;-67
2023/05/22 10:21:17;;;;;;;9.20;6.53;;;;;;;34.46;25.69;99989.28;5022571;28;20504;-68
2023/05/22 10:23:44;;;;;;;12.15;6.47;;;;;;;34.69;25.66;99985.50;5023177;28;20051;-67
2023/05/22 10:26:10;;;;;;;9.07;6.35;;;;;;;34.54;25.39;99985.00;5039662;28;20064;-67
2023/05/22 10:28:45;;;;;;;8.40;6.43;;;;;;;34.74;25.29;99987.34;5023815;28;20089;-67
2023/05/22 10:31:27;;;;;;;11.80;7.18;;;;;;;34.90;25.01;99986.75;5023151;28;20056;-67
2023/05/22 10:34:29;;;;;;;14.07;7.43;;;;;;;34.99;25.21;99997.88;5043746;28;20048;-67
2023/05/22 10:37:16;;;;;;;13.77;7.20;;;;;;;35.40;25.12;99980.09;5019658;28;20044;-67
2023/05/22 10:39:54;;;;;;;12.52;7.00;;;;;;;35.50;24.62;99981.81;5051550;28;20159;-67
2023/05/22 10:42:19;;;;;;;11.45;6.30;;;;;;;35.53;24.44;99989.47;4998704;28;20057;-67
2023/05/22 10:44:48;;;;;;;11.65;7.05;;;;;;;35.78;24.44;99988.00;4998924;28;20059;-67
2023/05/22 10:47:14;;;;;;;11.05;7.22;;;;;;;35.61;24.48;99980.44;4999130;28;20064;-67
2023/05/22 10:49:44;;;;;;;11.40;6.88;;;;;;;35.87;24.08;99984.22;4982709;28;20057;-67
2023/05/22 10:52:10;;;;;;;13.13;7.07;;;;;;;35.77;24.08;99980.88;4998870;28;20069;-67
2023/05/22 10:54:42;;;;;;;15.07;6.93;;;;;;;36.30;24.18;99979.75;5015131;28;20045;-67
2023/05/22 10:57:15;;;;;;;11.98;7.30;;;;;;;36.63;23.36;99985.72;5031292;28;20476;-68
2023/05/22 10:59:42;;;;;;;11.70;7.35;;;;;;;36.68;23.06;99978.09;4998647;28;20050;-68
2023/05/22 11:02:43;;;;;;;13.70;6.93;;;;;;;37.02;22.66;99977.38;5014290;28;20203;-67
2023/05/22 11:05:17;;;;;;;11.45;7.47;;;;;;;37.02;23.05;99980.97;4902244;29;20044;-67
2023/05/22 11:07:44;;;;;;;12.98;7.25;;;;;;;36.77;23.02;99967.06;4902421;29;20060;-68
2023/05/22 11:10:10;;;;;;;13.32;7.60;;;;;;;36.78;23.18;99971.47;4892318;29;20051;-68
2023/05/22 11:12:37;;;;;;;14.60;6.88;;;;;;;37.08;23.17;99974.13;4909705;28;20181;-67
2023/05/22 11:15:08;;;;;;;7.68;6.70;;;;;;;37.47;22.85;99973.19;4979223;28;20064;-67
2023/05/22 11:17:38;;;;;;;12.73;6.53;;;;;;;37.29;23.14;99967.97;5027214;28;20147;-67
2023/05/22 11:20:11;;;;;;;10.80;6.90;;;;;;;37.60;22.75;99968.63;5017909;28;20139;-67
2023/05/22 11:22:42;;;;;;;9.75;6.70;;;;;;;37.74;22.50;99974.81;5017933;28;20057;-67